Time;durP1;ratioP1;P1;durP2;ratioP2;P2;SDS_P1;SDS_P2;PMS_P1;PMS_P2;Temp;Humidity;BMP_temperature;BMP_pressure;BME280_temperature;BME280_humidity;BME280_pressure;Samples;Min_cycle;Max_cycle;Signal;HPM_P1;HPM_P2
2022/06/02 00:01:07;;;;;;;7.00;6.30;;;11.60;99.90;;;;;;5072719;28;20382;-86
2022/06/02 00:03:49;;;;;;;6.65;6.05;;;11.60;99.90;;;;;;5073400;28;20370;-85
2022/06/02 00:06:52;;;;;;;6.60;6.00;;;11.60;99.90;;;;;;5071701;28;20417;-86
2022/06/02 00:09:44;;;;;;;6.50;6.00;;;11.60;99.90;;;;;;5071259;28;20413;-84
2022/06/02 00:12:28;;;;;;;6.68;6.07;;;11.60;99.90;;;;;;5070145;28;20438;-85
2022/06/02 00:15:13;;;;;;;6.45;5.85;;;11.60;99.90;;;;;;5072273;28;20385;-86
2022/06/02 00:17:58;;;;;;;6.00;5.40;;;11.70;99.90;;;;;;5070807;28;20394;-85
2022/06/02 00:20:37;;;;;;;6.47;5.90;;;11.70;99.90;;;;;;5070417;28;20875;-84
2022/06/02 00:23:21;;;;;;;6.32;5.80;;;11.60;99.90;;;;;;5070387;28;20748;-85
2022/06/02 00:26:17;;;;;;;6.30;5.70;;;11.70;99.90;;;;;;5070594;28;20402;-84
2022/06/02 00:29:13;;;;;;;6.10;5.60;;;11.70;99.90;;;;;;5070686;28;20390;-85
2022/06/02 00:32:17;;;;;;;6.20;5.60;;;11.70;99.90;;;;;;5071691;28;20414;-84
2022/06/02 00:34:59;;;;;;;5.70;5.25;;;11.70;99.90;;;;;;5053369;28;20382;-85
2022/06/02 00:37:41;;;;;;;5.78;5.28;;;11.70;99.90;;;;;;5069164;28;20428;-83
2022/06/02 00:40:09;;;;;;;5.75;5.25;;;11.70;99.90;;;;;;5071675;28;20386;-85
2022/06/02 00:42:54;;;;;;;5.95;5.45;;;11.60;99.90;;;;;;5071549;28;20386;-84
2022/06/02 00:45:21;;;;;;;6.40;5.80;;;11.60;99.90;;;;;;5075351;28;20903;-85
2022/06/02 00:48:06;;;;;;;6.47;5.88;;;11.50;99.90;;;;;;5073504;28;20385;-84
2022/06/02 00:50:42;;;;;;;6.47;5.97;;;11.40;99.90;;;;;;5072233;28;20430;-84
2022/06/02 00:53:16;;;;;;;7.00;6.30;;;11.40;99.90;;;;;;5073555;28;20398;-83
2022/06/02 00:59:19;;;;;;;6.28;5.78;;;11.30;99.90;;;;;;5071324;28;20870;-83
2022/06/02 01:01:44;;;;;;;6.20;5.70;;;11.30;99.90;;;;;;5071048;28;20517;-85
2022/06/02 01:04:15;;;;;;;6.10;5.60;;;11.20;99.90;;;;;;5070886;28;20465;-86
2022/06/02 01:07:05;;;;;;;6.47;5.97;;;11.10;99.90;;;;;;5071723;28;20381;-83
2022/06/02 01:10:15;;;;;;;6.55;6.03;;;11.10;99.90;;;;;;5070007;28;20757;-82
2022/06/02 01:12:51;;;;;;;7.00;6.30;;;11.10;99.90;;;;;;5062859;28;20414;-85
2022/06/02 01:15:53;;;;;;;6.80;6.30;;;11.00;99.90;;;;;;5070782;28;20847;-85
2022/06/02 01:18:50;;;;;;;7.88;7.18;;;11.00;99.90;;;;;;5069946;28;20416;-84
2022/06/02 01:21:37;;;;;;;7.82;7.13;;;11.00;99.90;;;;;;5069441;28;20382;-83
2022/06/02 01:24:21;;;;;;;7.53;6.93;;;11.00;99.90;;;;;;5071638;28;20887;-86
2022/06/02 01:27:02;;;;;;;8.20;7.50;;;10.90;99.90;;;;;;5071605;28;20400;-86
2022/06/02 01:29:34;;;;;;;8.23;7.40;;;10.70;99.90;;;;;;5070380;28;20374;-84
2022/06/02 01:32:14;;;;;;;8.30;7.53;;;10.60;99.90;;;;;;5069501;28;20838;-84
2022/06/02 01:34:58;;;;;;;8.88;8.15;;;10.50;99.90;;;;;;5069641;28;20944;-84
2022/06/02 01:37:34;;;;;;;7.90;7.22;;;10.50;99.90;;;;;;5072071;28;20395;-86
2022/06/02 01:40:06;;;;;;;8.00;7.30;;;10.40;99.90;;;;;;5069875;28;20394;-84
2022/06/02 01:42:47;;;;;;;8.48;7.78;;;10.30;99.90;;;;;;5068943;28;20398;-86
2022/06/02 01:45:38;;;;;;;7.70;7.07;;;10.30;99.90;;;;;;5070399;28;20482;-84
2022/06/02 01:48:19;;;;;;;7.80;7.03;;;10.20;99.90;;;;;;5069584;28;20374;-85
2022/06/02 01:51:21;;;;;;;8.52;7.82;;;10.10;99.90;;;;;;5069537;28;20430;-85
2022/06/02 01:54:01;;;;;;;7.90;7.30;;;10.00;99.90;;;;;;5069892;28;20429;-86
2022/06/02 01:56:49;;;;;;;8.23;7.53;;;9.90;99.90;;;;;;5070831;28;20389;-84
2022/06/02 01:59:20;;;;;;;8.45;7.75;;;9.80;99.90;;;;;;5071586;28;20378;-85
2022/06/02 02:01:59;;;;;;;9.32;8.52;;;9.70;99.90;;;;;;5070910;28;20479;-84
2022/06/02 02:04:43;;;;;;;8.52;7.78;;;9.70;99.90;;;;;;5072466;28;20396;-85
2022/06/02 02:07:58;;;;;;;9.10;8.20;;;9.60;99.90;;;;;;5071115;28;20401;-84
2022/06/02 02:10:32;;;;;;;8.45;7.65;;;9.50;99.90;;;;;;5068888;28;20386;-85
2022/06/02 02:13:26;;;;;;;9.15;8.30;;;9.40;99.90;;;;;;5069994;28;20455;-84
2022/06/02 02:16:12;;;;;;;9.18;8.40;;;9.40;99.90;;;;;;5070222;28;20378;-84
2022/06/02 02:18:51;;;;;;;9.93;8.93;;;9.30;99.90;;;;;;5071089;28;20390;-85
2022/06/02 02:21:45;;;;;;;9.37;8.57;;;9.30;99.90;;;;;;5069552;28;20382;-83
2022/06/02 02:24:30;;;;;;;9.05;8.13;;;9.30;99.90;;;;;;5070977;28;20410;-85
2022/06/02 02:27:23;;;;;;;8.50;7.80;;;9.20;99.90;;;;;;5070510;28;20433;-84
2022/06/02 02:30:06;;;;;;;8.80;8.02;;;9.10;99.90;;;;;;5069052;28;20405;-84
2022/06/02 02:32:55;;;;;;;8.40;7.60;;;9.10;99.90;;;;;;5070469;28;20756;-85
2022/06/02 02:35:27;;;;;;;8.02;7.32;;;9.10;99.90;;;;;;5069696;28;20981;-85
2022/06/02 02:38:06;;;;;;;8.37;7.67;;;9.10;99.90;;;;;;5069773;28;20389;-85
2022/06/02 02:40:51;;;;;;;8.30;7.60;;;9.10;99.90;;;;;;5073657;28;20390;-85
2022/06/02 02:43:48;;;;;;;7.30;6.80;;;9.10;99.90;;;;;;5073834;28;20444;-85
2022/06/02 02:46:16;;;;;;;7.53;6.90;;;9.20;99.90;;;;;;5073930;28;20378;-86
2022/06/02 02:48:51;;;;;;;7.35;6.65;;;9.20;99.90;;;;;;5076037;28;20402;-83
2022/06/02 02:51:23;;;;;;;7.80;7.13;;;9.20;99.90;;;;;;5072900;28;20410;-84
2022/06/02 02:53:59;;;;;;;8.82;7.95;;;9.20;99.90;;;;;;5073193;28;20437;-86
2022/06/02 02:57:04;;;;;;;7.63;6.93;;;9.30;99.90;;;;;;5073705;28;20375;-85
2022/06/02 02:59:56;;;;;;;7.07;6.40;;;9.30;99.90;;;;;;5072943;28;20425;-84
2022/06/02 03:02:53;;;;;;;7.20;6.50;;;9.20;99.90;;;;;;5073120;28;20386;-84
2022/06/02 03:05:26;;;;;;;6.53;5.93;;;9.20;99.90;;;;;;5073397;28;20385;-84
2022/06/02 03:08:01;;;;;;;6.50;6.00;;;9.20;99.90;;;;;;5073376;28;20805;-86
2022/06/02 03:10:37;;;;;;;7.17;6.57;;;9.20;99.90;;;;;;5074235;28;20378;-84
2022/06/02 03:13:20;;;;;;;6.45;5.85;;;9.20;99.90;;;;;;5073293;28;20463;-85
2022/06/02 03:15:54;;;;;;;6.20;5.70;;;9.20;99.90;;;;;;5074994;28;20366;-85
2022/06/02 03:18:35;;;;;;;5.95;5.45;;;9.40;99.90;;;;;;5074122;28;20884;-86
2022/06/02 03:21:17;;;;;;;5.60;5.10;;;9.50;99.90;;;;;;5074629;28;20440;-82
2022/06/02 03:24:09;;;;;;;5.50;5.00;;;9.70;99.90;;;;;;5074124;28;20382;-85
2022/06/02 03:26:56;;;;;;;5.30;4.80;;;9.80;99.90;;;;;;5073456;28;20381;-84
2022/06/02 03:29:50;;;;;;;5.43;5.03;;;9.90;99.90;;;;;;5074017;28;20377;-83
2022/06/02 03:32:28;;;;;;;5.20;4.80;;;10.00;99.90;;;;;;5072442;28;20448;-84
2022/06/02 03:35:08;;;;;;;5.38;4.88;;;10.10;99.90;;;;;;5074104;28;20382;-84
2022/06/02 03:37:48;;;;;;;5.07;4.57;;;10.30;99.90;;;;;;5073252;28;20397;-83
2022/06/02 03:40:31;;;;;;;6.80;4.53;;;10.30;99.90;;;;;;5071273;28;20438;-86
2022/06/02 03:43:03;;;;;;;5.00;4.60;;;10.30;99.90;;;;;;5071665;28;20469;-84
2022/06/02 03:45:57;;;;;;;4.70;4.30;;;10.40;99.90;;;;;;5070988;28;20404;-85
2022/06/02 03:48:41;;;;;;;4.15;3.85;;;10.40;99.90;;;;;;5071697;28;20494;-84
2022/06/02 03:51:15;;;;;;;4.88;4.45;;;10.50;99.90;;;;;;5072186;28;20409;-84
2022/06/02 03:53:44;;;;;;;5.07;4.57;;;10.40;99.90;;;;;;5072799;28;20397;-84
2022/06/02 03:56:09;;;;;;;5.05;4.65;;;10.50;99.90;;;;;;5072723;28;20375;-84
2022/06/02 03:58:42;;;;;;;5.30;4.43;;;10.40;99.90;;;;;;5073464;28;20466;-85
2022/06/02 04:01:12;;;;;;;5.03;4.63;;;10.40;99.90;;;;;;5075950;28;20374;-85
2022/06/02 04:03:56;;;;;;;5.20;4.80;;;10.50;99.90;;;;;;5073026;28;20402;-85
2022/06/02 04:06:35;;;;;;;5.40;4.93;;;10.60;99.90;;;;;;5073217;28;20410;-86
2022/06/02 04:09:20;;;;;;;6.82;4.93;;;10.70;99.90;;;;;;5073651;28;20406;-85
2022/06/02 04:15:33;;;;;;;5.32;4.82;;;10.90;99.90;;;;;;5075068;28;20445;-85
2022/06/02 04:18:11;;;;;;;5.10;4.70;;;10.90;99.90;;;;;;5073136;28;20382;-85
2022/06/02 04:21:03;;;;;;;6.47;5.07;;;11.10;99.90;;;;;;5070561;28;20386;-85
2022/06/02 04:23:52;;;;;;;5.32;4.85;;;11.20;99.90;;;;;;5072098;28;20386;-85
2022/06/02 04:26:46;;;;;;;6.20;5.60;;;11.30;99.90;;;;;;5072510;28;20381;-85
2022/06/02 04:29:17;;;;;;;5.73;5.20;;;11.30;99.90;;;;;;5072087;28;20493;-85
2022/06/02 04:32:04;;;;;;;5.50;5.00;;;11.40;99.90;;;;;;5072378;28;20412;-86
2022/06/02 04:34:41;;;;;;;6.10;5.60;;;11.40;99.90;;;;;;5071497;28;20406;-86
2022/06/02 04:37:26;;;;;;;5.97;5.47;;;11.60;99.90;;;;;;5073403;28;21260;-86
2022/06/02 04:40:23;;;;;;;6.13;5.63;;;11.60;99.90;;;;;;5071866;28;20759;-83
2022/06/02 04:43:01;;;;;;;6.40;5.85;;;11.70;99.90;;;;;;5053555;28;20398;-82
2022/06/02 04:45:45;;;;;;;6.37;5.80;;;11.80;99.90;;;;;;5072812;28;20378;-86
2022/06/02 04:48:55;;;;;;;5.97;5.47;;;11.90;99.90;;;;;;5073593;28;20464;-83
2022/06/02 04:51:31;;;;;;;5.70;5.05;;;12.20;99.90;;;;;;5062092;28;20409;-85
2022/06/02 04:54:24;;;;;;;6.88;6.18;;;12.40;99.90;;;;;;5071922;28;20452;-83
2022/06/02 04:56:58;;;;;;;6.70;6.10;;;12.50;99.90;;;;;;5072559;28;20867;-83
2022/06/02 04:59:50;;;;;;;6.90;6.30;;;12.50;99.90;;;;;;5072020;28;20390;-84
2022/06/02 05:02:40;;;;;;;6.70;6.03;;;12.60;99.90;;;;;;5064150;28;20383;-87
2022/06/02 05:05:17;;;;;;;7.05;6.35;;;12.80;99.90;;;;;;5072875;28;21210;-85
2022/06/02 05:08:17;;;;;;;7.82;7.13;;;12.90;99.90;;;;;;5069526;28;20415;-83
2022/06/02 05:11:17;;;;;;;7.55;6.78;;;13.10;99.90;;;;;;5057683;28;20463;-85
2022/06/02 05:14:11;;;;;;;7.00;6.40;;;13.20;99.90;;;;;;5072019;28;20378;-86
2022/06/02 05:16:36;;;;;;;7.35;6.65;;;13.60;99.90;;;;;;5070173;28;20362;-82
2022/06/02 05:19:29;;;;;;;7.77;7.00;;;13.80;99.90;;;;;;5069301;28;20381;-84
2022/06/02 05:22:10;;;;;;;7.37;6.67;;;14.00;99.90;;;;;;5070111;28;20374;-82
2022/06/02 05:24:55;;;;;;;7.90;7.10;;;14.10;99.90;;;;;;5068240;28;20393;-86
2022/06/02 05:27:32;;;;;;;8.20;7.40;;;14.20;99.90;;;;;;5061809;28;20404;-83
2022/06/02 05:30:15;;;;;;;8.63;7.72;;;14.20;99.90;;;;;;5050764;28;20459;-86
2022/06/02 05:32:59;;;;;;;8.68;7.88;;;14.20;99.90;;;;;;5048647;28;20403;-86
2022/06/02 05:35:49;;;;;;;8.18;7.47;;;14.20;99.90;;;;;;5048899;28;20376;-83
2022/06/02 05:38:27;;;;;;;9.90;7.68;;;14.10;99.90;;;;;;5048335;28;20384;-85
2022/06/02 05:41:14;;;;;;;8.40;7.57;;;14.10;99.90;;;;;;5050819;28;20380;-85
2022/06/02 05:44:06;;;;;;;8.53;7.73;;;14.10;99.90;;;;;;5047488;28;20893;-83
2022/06/02 05:47:10;;;;;;;9.90;8.05;;;14.10;99.90;;;;;;5048575;28;20514;-85
2022/06/02 05:49:38;;;;;;;8.60;7.18;;;14.10;99.90;;;;;;5049178;28;20442;-86
2022/06/02 05:52:23;;;;;;;7.60;6.85;;;14.30;99.90;;;;;;5048484;28;20404;-86
2022/06/02 05:55:26;;;;;;;7.85;7.15;;;14.60;99.90;;;;;;5048262;28;20750;-86
2022/06/02 05:58:56;;;;;;;6.72;6.13;;;15.00;99.90;;;;;;5048675;28;20816;-86
2022/06/02 06:01:42;;;;;;;7.30;6.60;;;15.60;99.90;;;;;;5030087;28;20434;-85
2022/06/02 06:04:32;;;;;;;7.28;6.57;;;15.80;99.90;;;;;;5047735;28;20387;-85
2022/06/02 06:07:01;;;;;;;7.45;6.75;;;15.80;99.90;;;;;;5046524;28;20402;-84
2022/06/02 06:09:53;;;;;;;7.68;6.97;;;15.50;99.90;;;;;;5048132;28;20730;-84
2022/06/02 06:12:43;;;;;;;7.33;6.50;;;15.50;99.90;;;;;;5048775;28;20774;-86
2022/06/02 06:15:26;;;;;;;7.28;6.57;;;15.60;99.90;;;;;;5063310;28;20402;-86
2022/06/02 06:18:45;;;;;;;6.60;6.00;;;15.90;99.90;;;;;;5053817;28;20378;-84
2022/06/02 06:22:02;;;;;;;6.55;5.78;;;16.30;99.90;;;;;;5089742;28;20473;-85
2022/06/02 06:24:59;;;;;;;7.13;6.43;;;16.50;99.90;;;;;;5072672;28;20382;-83
2022/06/02 06:27:56;;;;;;;7.20;6.60;;;16.30;99.90;;;;;;5072621;28;20373;-86
2022/06/02 06:30:31;;;;;;;9.88;7.65;;;16.00;99.90;;;;;;5062506;28;20790;-86
2022/06/02 06:33:35;;;;;;;9.00;7.55;;;15.90;99.90;;;;;;5056108;28;20571;-84
2022/06/02 06:36:38;;;;;;;8.57;7.33;;;15.50;99.90;;;;;;5062778;28;20399;-84
2022/06/02 06:39:49;;;;;;;7.75;6.97;;;15.50;99.90;;;;;;5074923;28;20390;-84
2022/06/02 06:42:22;;;;;;;7.70;6.90;;;15.60;99.90;;;;;;5066862;28;20396;-84
2022/06/02 06:45:17;;;;;;;7.13;6.50;;;15.70;99.90;;;;;;5070667;28;20899;-86
2022/06/02 06:47:52;;;;;;;7.40;6.78;;;16.00;99.90;;;;;;5071590;28;20477;-85
2022/06/02 06:50:25;;;;;;;7.30;6.60;;;16.20;99.90;;;;;;5071257;28;20386;-84
2022/06/02 06:53:17;;;;;;;7.07;6.38;;;16.30;99.90;;;;;;5076122;28;20423;-86
2022/06/02 06:55:53;;;;;;;7.50;6.80;;;16.50;99.90;;;;;;5084150;28;20481;-88
2022/06/02 06:58:53;;;;;;;8.43;6.63;;;16.50;99.90;;;;;;5094524;28;20472;-83
2022/06/02 07:01:24;;;;;;;7.95;6.82;;;16.20;99.90;;;;;;5077088;28;20383;-83
2022/06/02 07:03:54;;;;;;;7.57;6.88;;;16.00;99.90;;;;;;5060223;28;20397;-86
2022/06/02 07:06:23;;;;;;;7.00;6.30;;;15.60;99.90;;;;;;5074085;28;20382;-86
2022/06/02 07:09:02;;;;;;;7.40;5.95;;;15.60;99.90;;;;;;5076287;28;20374;-84
2022/06/02 07:14:42;;;;;;;6.15;5.28;;;15.70;99.90;;;;;;5075853;28;20467;-84
2022/06/02 07:17:26;;;;;;;6.10;4.90;;;16.20;99.90;;;;;;5073708;28;20394;-86
2022/06/02 07:20:20;;;;;;;6.40;4.60;;;16.70;99.90;;;;;;5073229;28;20386;-86
2022/06/02 07:23:12;;;;;;;5.82;4.53;;;17.50;99.90;;;;;;5072498;28;20382;-87
2022/06/02 07:26:01;;;;;;;5.13;4.53;;;17.90;99.90;;;;;;5069403;28;20394;-86
2022/06/02 07:28:50;;;;;;;5.18;4.50;;;18.20;99.90;;;;;;5061915;28;20913;-87
2022/06/02 07:31:33;;;;;;;5.97;4.65;;;18.20;99.90;;;;;;5068790;28;20407;-87
2022/06/02 07:34:12;;;;;;;6.05;4.25;;;18.20;99.90;;;;;;5071722;28;20408;-87
2022/06/02 07:36:57;;;;;;;4.25;3.75;;;18.00;99.90;;;;;;5073759;28;20374;-85
2022/06/02 07:39:32;;;;;;;4.88;3.70;;;17.90;99.90;;;;;;5073622;28;20389;-91
2022/06/02 07:42:16;;;;;;;5.75;4.00;;;17.70;99.90;;;;;;5071515;28;20385;-87
2022/06/02 07:45:06;;;;;;;7.70;3.92;;;18.30;99.90;;;;;;5072878;28;20386;-86
2022/06/02 07:47:53;;;;;;;4.35;3.50;;;18.60;99.90;;;;;;5072127;28;20412;-82
2022/06/02 07:50:25;;;;;;;5.32;3.40;;;18.70;99.90;;;;;;5073245;28;20480;-84
2022/06/02 07:53:13;;;;;;;5.03;2.97;;;18.30;99.90;;;;;;5071593;28;20398;-84
2022/06/02 07:55:50;;;;;;;3.55;2.97;;;18.10;99.90;;;;;;5072074;28;20428;-86
2022/06/02 07:58:29;;;;;;;4.28;3.13;;;18.20;99.90;;;;;;5071874;28;20374;-86
2022/06/02 08:01:29;;;;;;;4.95;2.95;;;18.40;99.90;;;;;;5071926;28;20394;-87
2022/06/02 08:03:55;;;;;;;4.95;2.75;;;;;;;;;;5068326;28;20444;-85
2022/06/02 08:06:46;;;;;;;3.78;2.50;;;18.60;99.90;;;;;;5069936;28;20410;-85
2022/06/02 08:09:20;;;;;;;3.13;2.83;;;18.80;99.90;;;;;;5072426;28;20412;-86
2022/06/02 08:12:00;;;;;;;3.75;2.80;;;19.10;99.90;;;;;;5072055;28;21103;-86
2022/06/02 08:14:43;;;;;;;6.13;3.10;;;18.80;99.90;;;;;;5071703;28;20382;-85
2022/06/02 08:17:21;;;;;;;3.85;3.30;;;18.70;99.90;;;;;;5069863;28;20439;-87
2022/06/02 08:20:05;;;;;;;5.03;3.08;;;19.00;99.90;;;;;;5069482;28;20863;-86
2022/06/02 08:22:45;;;;;;;4.30;3.20;;;19.60;99.90;;;;;;5070971;28;20375;-89
2022/06/02 08:25:13;;;;;;;5.80;2.83;;;20.10;99.90;;;;;;5070790;28;20386;-87
2022/06/02 08:28:04;;;;;;;4.22;3.00;;;19.90;99.90;;;;;;5072145;28;20373;-87
2022/06/02 08:30:40;;;;;;;4.10;2.37;;;19.60;99.90;;;;;;5071881;28;20810;-87
2022/06/02 08:33:36;;;;;;;3.08;2.47;;;18.80;99.80;;;;;;5071677;28;20437;-85
2022/06/02 08:36:13;;;;;;;4.22;2.60;;;18.70;99.90;;;;;;5066046;28;20451;-87
2022/06/02 08:39:12;;;;;;;3.58;2.17;;;19.30;99.90;;;;;;5068876;28;20393;-84
2022/06/02 08:41:57;;;;;;;4.27;2.20;;;;;;;;;;5070006;28;20386;-86
2022/06/02 08:45:00;;;;;;;3.55;2.05;;;20.90;97.30;;;;;;5070531;28;20389;-85
2022/06/02 08:48:03;;;;;;;2.60;1.90;;;21.20;97.60;;;;;;5069333;28;20422;-87
2022/06/02 08:50:53;;;;;;;3.30;2.00;;;21.60;95.60;;;;;;5069849;28;20404;-87
2022/06/02 08:54:00;;;;;;;4.45;2.20;;;21.80;93.80;;;;;;5068345;28;20485;-85
2022/06/02 08:57:10;;;;;;;4.13;2.07;;;20.90;94.10;;;;;;5068786;28;20686;-84
2022/06/02 08:59:53;;;;;;;2.20;2.00;;;20.20;94.80;;;;;;5067732;28;20421;-86
2022/06/02 09:02:50;;;;;;;3.08;2.15;;;20.00;96.90;;;;;;5069523;28;20436;-86
2022/06/02 09:05:37;;;;;;;2.92;1.90;;;20.40;95.40;;;;;;5070450;28;20388;-88
2022/06/02 09:08:32;;;;;;;3.20;2.20;;;20.70;99.90;;;;;;5069917;28;20872;-86
2022/06/02 09:11:07;;;;;;;2.95;2.00;;;19.70;94.00;;;;;;5069532;28;20405;-85
2022/06/02 09:13:45;;;;;;;4.38;2.28;;;19.80;94.60;;;;;;5070893;28;20382;-86
2022/06/02 09:16:20;;;;;;;4.88;2.55;;;19.60;95.30;;;;;;5070499;28;20479;-87
2022/06/02 09:19:17;;;;;;;3.95;2.00;;;19.70;95.00;;;;;;5068483;28;20409;-85
2022/06/02 09:21:52;;;;;;;4.97;2.28;;;20.10;96.40;;;;;;5071071;28;20414;-85
2022/06/02 09:24:29;;;;;;;4.75;2.38;;;20.20;95.10;;;;;;5069425;28;20386;-87
2022/06/02 09:27:45;;;;;;;5.03;2.40;;;20.00;96.60;;;;;;5064239;28;20421;-85
2022/06/02 09:30:17;;;;;;;5.93;2.70;;;;;;;;;;5049778;28;20388;-87
2022/06/02 09:36:35;;;;;;;4.00;2.30;;;19.00;96.80;;;;;;5050198;28;20908;-85
2022/06/02 09:39:22;;;;;;;3.70;2.20;;;19.60;97.20;;;;;;5049954;28;20395;-84
2022/06/02 09:42:06;;;;;;;3.10;1.98;;;20.20;95.60;;;;;;5048515;28;20420;-85
2022/06/02 09:45:28;;;;;;;4.50;1.73;;;20.10;93.70;;;;;;5049234;28;20387;-84
2022/06/02 09:48:06;;;;;;;5.17;1.83;;;19.70;93.40;;;;;;5052091;28;20390;-85
2022/06/02 09:50:38;;;;;;;3.33;1.60;;;19.70;96.20;;;;;;5054585;28;20435;-85
2022/06/02 09:53:15;;;;;;;2.80;1.90;;;20.20;94.20;;;;;;5052664;28;20922;-85
2022/06/02 09:56:11;;;;;;;2.75;1.45;;;20.70;94.40;;;;;;5052804;28;20383;-84
2022/06/02 09:58:48;;;;;;;2.45;1.20;;;21.20;92.70;;;;;;5052897;28;20430;-87
2022/06/02 10:01:22;;;;;;;2.75;1.55;;;21.20;90.40;;;;;;5053066;28;20395;-85
2022/06/02 10:04:15;;;;;;;2.00;1.15;;;20.80;90.60;;;;;;5053811;28;20419;-85
2022/06/02 10:06:51;;;;;;;2.87;1.10;;;20.00;91.70;;;;;;5054282;28;20474;-86
2022/06/02 10:09:22;;;;;;;2.63;1.20;;;19.70;91.30;;;;;;5053232;28;20384;-86
2022/06/02 10:15:21;;;;;;;3.40;1.50;;;19.90;94.30;;;;;;5056756;28;20434;-86
2022/06/02 10:18:15;;;;;;;2.53;1.15;;;20.20;91.50;;;;;;5054320;28;20399;-86
2022/06/02 10:21:09;;;;;;;1.90;1.20;;;20.60;94.00;;;;;;5052681;28;21222;-84
2022/06/02 10:24:13;;;;;;;3.93;1.30;;;21.00;93.10;;;;;;5053010;28;20784;-83
2022/06/02 10:27:21;;;;;;;2.90;1.38;;;21.30;90.30;;;;;;5054087;28;20380;-85
2022/06/02 10:29:56;;;;;;;3.63;1.40;;;20.70;91.00;;;;;;5053651;28;20905;-85
2022/06/02 10:32:51;;;;;;;4.15;1.40;;;20.40;90.60;;;;;;5052758;28;20454;-84
2022/06/02 10:35:48;;;;;;;3.13;1.25;;;20.80;92.80;;;;;;5054332;28;20398;-84
2022/06/02 10:38:54;;;;;;;5.33;1.57;;;21.00;90.60;;;;;;5054240;28;20874;-84
2022/06/02 10:41:43;;;;;;;3.90;1.50;;;21.10;91.40;;;;;;5055852;28;20502;-85
2022/06/02 10:44:57;;;;;;;2.67;1.40;;;20.80;92.10;;;;;;5066333;28;20382;-84
2022/06/02 10:47:42;;;;;;;2.42;1.42;;;20.80;90.90;;;;;;5064066;28;20452;-85
2022/06/02 10:50:17;;;;;;;1.33;1.00;;;21.30;91.80;;;;;;5074767;28;20839;-85
2022/06/02 10:53:07;;;;;;;2.10;1.42;;;21.60;91.00;;;;;;5070981;28;20413;-84
2022/06/02 10:56:00;;;;;;;2.97;1.45;;;21.80;89.00;;;;;;5073101;28;20462;-86
2022/06/02 10:58:43;;;;;;;1.70;1.20;;;21.80;89.60;;;;;;5051772;28;21190;-84
2022/06/02 11:01:46;;;;;;;3.50;1.10;;;21.80;85.40;;;;;;5052209;28;20460;-84
2022/06/02 11:04:47;;;;;;;3.15;1.42;;;21.40;88.60;;;;;;5053872;28;20387;-86
2022/06/02 11:07:53;;;;;;;3.45;1.33;;;21.60;91.50;;;;;;5051442;28;20392;-89
2022/06/02 11:10:44;;;;;;;3.63;1.33;;;21.90;87.30;;;;;;5071427;28;20465;-84
2022/06/02 11:13:13;;;;;;;2.08;1.05;;;21.70;87.90;;;;;;5071634;28;20893;-84
2022/06/02 11:15:54;;;;;;;1.60;1.13;;;21.50;86.90;;;;;;5071865;28;20880;-84
2022/06/02 11:18:31;;;;;;;1.80;1.00;;;21.40;85.40;;;;;;5072567;28;20490;-84
2022/06/02 11:21:38;;;;;;;2.35;0.95;;;21.50;85.70;;;;;;5071417;28;20378;-84
2022/06/02 11:24:33;;;;;;;2.78;1.13;;;21.90;84.70;;;;;;5071883;28;20385;-83
2022/06/02 11:27:27;;;;;;;3.10;1.20;;;22.20;84.00;;;;;;5071816;28;20439;-85
2022/06/02 11:30:07;;;;;;;2.85;1.20;;;22.00;83.50;;;;;;5071381;28;20417;-85
2022/06/02 11:32:56;;;;;;;2.90;1.20;;;21.80;82.10;;;;;;5072714;28;20808;-86
2022/06/02 11:35:31;;;;;;;2.78;1.05;;;21.30;81.50;;;;;;5072654;28;20429;-86
2022/06/02 11:38:31;;;;;;;3.55;0.98;;;20.80;81.10;;;;;;5071590;28;20379;-85
2022/06/02 11:41:06;;;;;;;1.30;1.10;;;20.80;85.30;;;;;;5062651;28;20378;-87
2022/06/02 11:43:38;;;;;;;2.20;1.20;;;21.10;84.20;;;;;;5065424;28;20898;-86
2022/06/02 11:46:25;;;;;;;3.90;1.00;;;21.30;83.40;;;;;;5065638;28;20814;-85
2022/06/02 11:49:05;;;;;;;1.80;1.10;;;21.30;83.40;;;;;;5071417;28;20408;-85
2022/06/02 11:51:51;;;;;;;3.58;1.00;;;21.00;82.70;;;;;;5071570;28;20859;-86
2022/06/02 11:54:19;;;;;;;1.25;0.80;;;21.20;86.50;;;;;;5058433;28;20380;-86
2022/06/02 11:57:12;;;;;;;1.58;1.10;;;21.40;84.10;;;;;;5051766;28;20390;-85
2022/06/02 11:59:53;;;;;;;5.45;1.10;;;21.50;81.80;;;;;;5051650;28;20427;-84
2022/06/02 12:02:18;;;;;;;2.90;1.38;;;21.30;79.60;;;;;;5051533;28;20411;-85
2022/06/02 12:04:53;;;;;;;1.90;1.00;;;21.10;81.80;;;;;;5070312;28;20389;-86
2022/06/02 12:07:49;;;;;;;2.83;0.90;;;21.00;84.10;;;;;;5072747;28;20373;-86
2022/06/02 12:10:14;;;;;;;1.70;1.00;;;21.10;83.50;;;;;;5072320;28;20378;-83
2022/06/02 12:13:04;;;;;;;2.20;1.00;;;21.30;81.50;;;;;;5065739;28;20410;-88
2022/06/02 12:15:48;;;;;;;2.22;1.17;;;21.40;81.50;;;;;;5074963;28;20399;-84
2022/06/02 12:18:42;;;;;;;1.33;1.10;;;21.20;82.10;;;;;;5066354;28;20391;-84
2022/06/02 12:21:41;;;;;;;2.55;1.10;;;21.30;85.30;;;;;;5051587;28;20486;-88
2022/06/02 12:24:34;;;;;;;1.83;1.15;;;21.00;82.80;;;;;;5051432;28;20395;-85
2022/06/02 12:27:36;;;;;;;3.33;1.30;;;21.00;81.30;;;;;;5069702;28;20385;-84
2022/06/02 12:30:08;;;;;;;2.60;1.10;;;20.80;83.40;;;;;;5057330;28;20923;-86
2022/06/02 12:33:16;;;;;;;2.53;1.30;;;20.60;82.40;;;;;;5063530;28;20486;-84
2022/06/02 12:36:10;;;;;;;1.70;1.20;;;20.20;84.10;;;;;;5052884;28;20412;-85
2022/06/02 12:39:04;;;;;;;2.33;1.30;;;20.00;87.20;;;;;;5052389;28;20423;-85
2022/06/02 12:42:01;;;;;;;2.88;1.45;;;20.00;86.30;;;;;;5050175;28;20474;-85
2022/06/02 12:44:38;;;;;;;2.75;1.55;;;20.30;85.70;;;;;;5058460;28;20844;-86
2022/06/02 12:47:25;;;;;;;5.65;1.40;;;20.40;82.40;;;;;;5065592;28;20415;-85
2022/06/02 12:50:22;;;;;;;3.67;1.50;;;20.20;85.40;;;;;;5050771;28;20411;-87
2022/06/02 12:53:28;;;;;;;3.35;1.30;;;20.00;84.90;;;;;;5063315;28;20409;-87
2022/06/02 12:56:32;;;;;;;3.03;1.40;;;20.00;87.00;;;;;;5069377;28;20386;-87
2022/06/02 12:59:23;;;;;;;3.28;1.55;;;20.20;87.00;;;;;;5071597;28;20405;-86
2022/06/02 13:01:49;;;;;;;1.80;1.20;;;20.40;89.30;;;;;;5069880;28;20425;-86
2022/06/02 13:04:43;;;;;;;3.10;1.53;;;20.50;86.40;;;;;;5061306;28;20813;-85
2022/06/02 13:07:46;;;;;;;3.67;1.38;;;20.40;86.40;;;;;;5051022;28;20396;-85
2022/06/02 13:10:47;;;;;;;2.30;1.40;;;20.30;88.80;;;;;;5059930;28;20378;-84
2022/06/02 13:13:44;;;;;;;4.20;1.40;;;20.60;87.00;;;;;;5069285;28;20418;-84
2022/06/02 13:16:26;;;;;;;2.20;1.52;;;21.10;86.80;;;;;;5061400;28;20710;-85
2022/06/02 13:19:10;;;;;;;1.35;1.20;;;21.20;82.70;;;;;;5065425;28;20760;-83
2022/06/02 13:22:08;;;;;;;2.10;1.30;;;21.10;84.70;;;;;;5066070;28;20381;-86
2022/06/02 13:24:59;;;;;;;2.67;1.20;;;21.20;86.10;;;;;;5075061;28;20384;-86
2022/06/02 13:27:50;;;;;;;2.13;1.20;;;21.20;84.70;;;;;;5074481;28;20371;-84
2022/06/02 13:30:40;;;;;;;2.90;1.30;;;21.20;85.30;;;;;;5073694;28;20517;-84
2022/06/02 13:33:46;;;;;;;3.53;1.42;;;21.10;84.60;;;;;;5069329;28;20453;-83
2022/06/02 13:36:45;;;;;;;1.43;1.13;;;20.80;84.20;;;;;;5051947;28;20420;-82
2022/06/02 13:39:16;;;;;;;2.67;1.40;;;20.70;84.10;;;;;;5059078;28;20453;-86
2022/06/02 13:41:45;;;;;;;4.57;1.30;;;20.70;87.00;;;;;;5048563;28;20804;-85
2022/06/02 13:44:43;;;;;;;1.95;1.00;;;21.20;85.30;;;;;;5049926;28;20384;-86
2022/06/02 13:47:35;;;;;;;1.30;1.00;;;21.60;85.30;;;;;;5049803;28;20418;-84
2022/06/02 13:50:10;;;;;;;2.13;0.88;;;21.90;83.00;;;;;;5049090;28;20383;-88
2022/06/02 13:52:51;;;;;;;3.20;1.23;;;21.90;80.90;;;;;;5050122;28;20490;-85
2022/06/02 13:58:37;;;;;;;5.03;1.10;;;21.30;85.60;;;;;;5060085;28;20494;-88
2022/06/02 14:01:22;;;;;;;2.13;1.23;;;21.40;85.70;;;;;;5059796;28;20376;-87
2022/06/02 14:04:18;;;;;;;1.95;1.15;;;21.70;83.40;;;;;;5061580;28;21542;-85
2022/06/02 14:07:20;;;;;;;1.80;1.00;;;21.90;83.60;;;;;;5060389;28;20388;-87
2022/06/02 14:10:00;;;;;;;1.77;0.90;;;22.10;81.00;;;;;;5061461;28;20844;-82
2022/06/02 14:12:43;;;;;;;1.30;0.90;;;21.90;80.30;;;;;;5056960;28;20489;-86
2022/06/02 14:15:29;;;;;;;1.58;0.95;;;21.70;82.00;;;;;;5049112;28;20410;-84
2022/06/02 14:18:40;;;;;;;1.80;1.10;;;21.50;82.50;;;;;;5048922;28;20395;-86
2022/06/02 14:21:31;;;;;;;1.30;0.90;;;21.40;84.20;;;;;;5039850;28;20405;-88
2022/06/02 14:24:10;;;;;;;1.17;0.90;;;21.30;84.20;;;;;;5048887;28;20434;-85
2022/06/02 14:26:41;;;;;;;3.00;1.20;;;21.10;85.20;;;;;;5047877;28;20510;-86
2022/06/02 14:29:43;;;;;;;1.35;1.10;;;20.80;84.50;;;;;;5048451;28;20372;-89
2022/06/02 14:32:38;;;;;;;3.38;1.17;;;20.40;87.90;;;;;;5047382;28;20920;-86
2022/06/02 14:35:16;;;;;;;1.60;1.00;;;20.40;88.90;;;;;;5050472;28;20416;-85
2022/06/02 14:37:53;;;;;;;3.17;1.30;;;20.70;87.70;;;;;;5053659;28;20376;-85
2022/06/02 14:40:26;;;;;;;2.92;1.05;;;21.20;87.90;;;;;;5052212;28;20413;-85
2022/06/02 14:43:07;;;;;;;1.83;1.10;;;21.50;87.40;;;;;;5051735;28;20726;-85
2022/06/02 14:45:44;;;;;;;1.97;1.20;;;21.60;85.30;;;;;;5051266;28;20388;-85